sensor_id;sensor_type;location;lat;lon;timestamp;temperature;humidity
23507;DHT22;11930;53.076;18.250;2024-03-02T00:00:11;7.80;99.90
23507;DHT22;11930;53.076;18.250;2024-03-02T00:02:59;7.80;99.90
23507;DHT22;11930;53.076;18.250;2024-03-02T00:05:26;7.80;99.90
23507;DHT22;11930;53.076;18.250;2024-03-02T00:07:54;7.80;99.90
23507;DHT22;11930;53.076;18.250;2024-03-02T00:13:03;7.70;99.90
23507;DHT22;11930;53.076;18.250;2024-03-02T00:15:48;7.70;99.90
23507;DHT22;11930;53.076;18.250;2024-03-02T00:18:34;7.70;99.90
23507;DHT22;11930;53.076;18.250;2024-03-02T00:21:00;7.70;99.90
23507;DHT22;11930;53.076;18.250;2024-03-02T00:23:31;7.70;99.90
23507;DHT22;11930;53.076;18.250;2024-03-02T00:25:58;7.60;99.90
23507;DHT22;11930;53.076;18.250;2024-03-02T00:28:29;7.70;99.90
23507;DHT22;11930;53.076;18.250;2024-03-02T00:31:02;7.60;99.90
23507;DHT22;11930;53.076;18.250;2024-03-02T00:33:35;7.60;99.90
23507;DHT22;11930;53.076;18.250;2024-03-02T00:36:03;7.60;99.90
23507;DHT22;11930;53.076;18.250;2024-03-02T00:38:30;7.60;99.90
23507;DHT22;11930;53.076;18.250;2024-03-02T00:41:04;7.60;99.90
23507;DHT22;11930;53.076;18.250;2024-03-02T00:46:19;7.50;99.90
23507;DHT22;11930;53.076;18.250;2024-03-02T00:48:54;7.60;99.90
23507;DHT22;11930;53.076;18.250;2024-03-02T00:51:25;7.50;99.90
23507;DHT22;11930;53.076;18.250;2024-03-02T00:53:53;7.50;99.90
23507;DHT22;11930;53.076;18.250;2024-03-02T00:56:23;7.50;99.90
23507;DHT22;11930;53.076;18.250;2024-03-02T00:58:50;7.50;99.90
23507;DHT22;11930;53.076;18.250;2024-03-02T01:01:16;7.50;99.90
23507;DHT22;11930;53.076;18.250;2024-03-02T01:03:43;7.50;99.90
23507;DHT22;11930;53.076;18.250;2024-03-02T01:06:09;7.50;99.90
23507;DHT22;11930;53.076;18.250;2024-03-02T01:08:36;7.50;99.90
23507;DHT22;11930;53.076;18.250;2024-03-02T01:11:03;7.50;99.90
23507;DHT22;11930;53.076;18.250;2024-03-02T01:13:30;7.50;99.90
23507;DHT22;11930;53.076;18.250;2024-03-02T01:15:56;7.50;99.90
23507;DHT22;11930;53.076;18.250;2024-03-02T01:18:23;7.40;99.90
23507;DHT22;11930;53.076;18.250;2024-03-02T01:20:49;7.50;99.90
23507;DHT22;11930;53.076;18.250;2024-03-02T01:23:22;7.40;99.90
23507;DHT22;11930;53.076;18.250;2024-03-02T01:25:48;7.40;99.90
23507;DHT22;11930;53.076;18.250;2024-03-02T01:28:15;7.40;99.90
23507;DHT22;11930;53.076;18.250;2024-03-02T01:30:41;7.40;99.90
23507;DHT22;11930;53.076;18.250;2024-03-02T01:33:07;7.40;99.90
23507;DHT22;11930;53.076;18.250;2024-03-02T01:35:34;7.40;99.90
23507;DHT22;11930;53.076;18.250;2024-03-02T01:38:01;7.40;99.90
23507;DHT22;11930;53.076;18.250;2024-03-02T01:40:27;7.40;99.90
23507;DHT22;11930;53.076;18.250;2024-03-02T01:42:54;7.40;99.90
23507;DHT22;11930;53.076;18.250;2024-03-02T01:45:21;7.30;99.90
23507;DHT22;11930;53.076;18.250;2024-03-02T01:47:48;7.30;99.90
23507;DHT22;11930;53.076;18.250;2024-03-02T01:50:14;7.30;99.90
23507;DHT22;11930;53.076;18.250;2024-03-02T01:52:41;7.30;99.90
23507;DHT22;11930;53.076;18.250;2024-03-02T01:55:07;7.30;99.90
23507;DHT22;11930;53.076;18.250;2024-03-02T01:57:36;7.30;99.90
23507;DHT22;11930;53.076;18.250;2024-03-02T02:00:03;7.20;99.90
23507;DHT22;11930;53.076;18.250;2024-03-02T02:02:38;7.20;99.90
23507;DHT22;11930;53.076;18.250;2024-03-02T02:05:04;7.20;99.90
23507;DHT22;11930;53.076;18.250;2024-03-02T02:07:30;7.20;99.90
23507;DHT22;11930;53.076;18.250;2024-03-02T02:09:57;7.20;99.90
23507;DHT22;11930;53.076;18.250;2024-03-02T02:12:24;7.20;99.90
23507;DHT22;11930;53.076;18.250;2024-03-02T02:14:50;7.10;99.90
23507;DHT22;11930;53.076;18.250;2024-03-02T02:19:43;7.10;99.90
23507;DHT22;11930;53.076;18.250;2024-03-02T02:22:12;7.10;99.90
23507;DHT22;11930;53.076;18.250;2024-03-02T02:24:41;7.00;99.90
23507;DHT22;11930;53.076;18.250;2024-03-02T02:27:08;7.00;99.90
23507;DHT22;11930;53.076;18.250;2024-03-02T02:29:36;7.00;99.90
23507;DHT22;11930;53.076;18.250;2024-03-02T02:32:02;7.00;99.90
23507;DHT22;11930;53.076;18.250;2024-03-02T02:34:29;7.00;99.90
23507;DHT22;11930;53.076;18.250;2024-03-02T02:36:55;6.90;99.90
23507;DHT22;11930;53.076;18.250;2024-03-02T02:39:22;6.90;99.90
23507;DHT22;11930;53.076;18.250;2024-03-02T02:41:48;6.80;99.90
23507;DHT22;11930;53.076;18.250;2024-03-02T02:44:14;6.80;99.90
23507;DHT22;11930;53.076;18.250;2024-03-02T02:46:41;6.80;99.90
23507;DHT22;11930;53.076;18.250;2024-03-02T02:49:07;6.80;99.90
23507;DHT22;11930;53.076;18.250;2024-03-02T02:51:33;6.70;99.90
23507;DHT22;11930;53.076;18.250;2024-03-02T02:53:59;6.70;99.90
23507;DHT22;11930;53.076;18.250;2024-03-02T02:56:26;6.60;99.90
23507;DHT22;11930;53.076;18.250;2024-03-02T02:58:52;6.60;99.90
23507;DHT22;11930;53.076;18.250;2024-03-02T03:01:18;6.60;99.90
23507;DHT22;11930;53.076;18.250;2024-03-02T03:03:45;6.60;99.90
23507;DHT22;11930;53.076;18.250;2024-03-02T03:06:12;6.60;99.90
23507;DHT22;11930;53.076;18.250;2024-03-02T03:08:38;6.60;99.90
23507;DHT22;11930;53.076;18.250;2024-03-02T03:11:04;6.50;99.90
23507;DHT22;11930;53.076;18.250;2024-03-02T03:13:32;6.50;99.90
23507;DHT22;11930;53.076;18.250;2024-03-02T03:15:58;6.50;99.90
23507;DHT22;11930;53.076;18.250;2024-03-02T03:18:24;6.50;99.90
23507;DHT22;11930;53.076;18.250;2024-03-02T03:20:50;6.60;99.90
23507;DHT22;11930;53.076;18.250;2024-03-02T03:23:16;6.60;99.90
23507;DHT22;11930;53.076;18.250;2024-03-02T03:25:43;6.60;99.90
23507;DHT22;11930;53.076;18.250;2024-03-02T03:28:10;6.60;99.90
23507;DHT22;11930;53.076;18.250;2024-03-02T03:30:37;6.60;99.90
23507;DHT22;11930;53.076;18.250;2024-03-02T03:33:04;6.60;99.90
23507;DHT22;11930;53.076;18.250;2024-03-02T03:35:32;6.60;99.90
23507;DHT22;11930;53.076;18.250;2024-03-02T03:37:58;6.60;99.90
23507;DHT22;11930;53.076;18.250;2024-03-02T03:40:25;6.60;99.90
23507;DHT22;11930;53.076;18.250;2024-03-02T03:42:52;6.60;99.90
23507;DHT22;11930;53.076;18.250;2024-03-02T03:45:18;6.60;99.90
23507;DHT22;11930;53.076;18.250;2024-03-02T03:47:44;6.60;99.90
23507;DHT22;11930;53.076;18.250;2024-03-02T03:50:10;6.50;99.90
23507;DHT22;11930;53.076;18.250;2024-03-02T03:52:36;6.50;99.90
23507;DHT22;11930;53.076;18.250;2024-03-02T03:55:03;6.50;99.90
23507;DHT22;11930;53.076;18.250;2024-03-02T03:57:31;6.50;99.90
23507;DHT22;11930;53.076;18.250;2024-03-02T03:59:57;6.50;99.90
23507;DHT22;11930;53.076;18.250;2024-03-02T04:02:23;6.50;99.90
23507;DHT22;11930;53.076;18.250;2024-03-02T04:04:50;6.50;99.90
23507;DHT22;11930;53.076;18.250;2024-03-02T04:07:16;6.50;99.90
23507;DHT22;11930;53.076;18.250;2024-03-02T04:09:43;6.60;99.90
23507;DHT22;11930;53.076;18.250;2024-03-02T04:12:09;6.60;99.90
23507;DHT22;11930;53.076;18.250;2024-03-02T04:14:35;6.60;99.90
23507;DHT22;11930;53.076;18.250;2024-03-02T04:17:03;6.60;99.90
23507;DHT22;11930;53.076;18.250;2024-03-02T04:19:29;6.60;99.90
23507;DHT22;11930;53.076;18.250;2024-03-02T04:21:55;6.60;99.90
23507;DHT22;11930;53.076;18.250;2024-03-02T04:24:22;6.70;99.90
23507;DHT22;11930;53.076;18.250;2024-03-02T04:26:48;6.70;99.90
23507;DHT22;11930;53.076;18.250;2024-03-02T04:29:14;6.70;99.90
23507;DHT22;11930;53.076;18.250;2024-03-02T04:31:40;6.70;99.90
23507;DHT22;11930;53.076;18.250;2024-03-02T04:34:06;6.70;99.90
23507;DHT22;11930;53.076;18.250;2024-03-02T04:36:32;6.70;99.90
23507;DHT22;11930;53.076;18.250;2024-03-02T04:38:58;6.70;99.90
23507;DHT22;11930;53.076;18.250;2024-03-02T04:41:25;6.70;99.90
23507;DHT22;11930;53.076;18.250;2024-03-02T04:43:51;6.70;99.90
23507;DHT22;11930;53.076;18.250;2024-03-02T04:46:17;6.70;99.90
23507;DHT22;11930;53.076;18.250;2024-03-02T04:48:43;6.70;99.90
23507;DHT22;11930;53.076;18.250;2024-03-02T04:51:10;6.80;99.90
23507;DHT22;11930;53.076;18.250;2024-03-02T04:53:36;6.80;99.90
23507;DHT22;11930;53.076;18.250;2024-03-02T04:56:04;6.80;99.90
23507;DHT22;11930;53.076;18.250;2024-03-02T04:59:05;6.80;99.90
23507;DHT22;11930;53.076;18.250;2024-03-02T05:01:31;6.80;99.90
23507;DHT22;11930;53.076;18.250;2024-03-02T05:03:57;6.80;99.90
23507;DHT22;11930;53.076;18.250;2024-03-02T05:06:24;6.80;99.90
23507;DHT22;11930;53.076;18.250;2024-03-02T05:08:49;6.80;99.90
23507;DHT22;11930;53.076;18.250;2024-03-02T05:11:16;6.80;99.90
23507;DHT22;11930;53.076;18.250;2024-03-02T05:14:05;6.80;99.90
23507;DHT22;11930;53.076;18.250;2024-03-02T05:16:38;6.80;99.90
23507;DHT22;11930;53.076;18.250;2024-03-02T05:19:09;6.90;99.90
23507;DHT22;11930;53.076;18.250;2024-03-02T05:21:35;6.90;99.90
23507;DHT22;11930;53.076;18.250;2024-03-02T05:24:01;6.90;99.90
23507;DHT22;11930;53.076;18.250;2024-03-02T05:26:28;6.90;99.90
23507;DHT22;11930;53.076;18.250;2024-03-02T05:28:54;6.90;99.90
23507;DHT22;11930;53.076;18.250;2024-03-02T05:31:20;6.90;99.90
23507;DHT22;11930;53.076;18.250;2024-03-02T05:33:46;6.90;99.90
23507;DHT22;11930;53.076;18.250;2024-03-02T05:36:13;6.90;99.90
23507;DHT22;11930;53.076;18.250;2024-03-02T05:38:39;6.90;99.90
23507;DHT22;11930;53.076;18.250;2024-03-02T05:41:05;6.90;99.90
23507;DHT22;11930;53.076;18.250;2024-03-02T05:43:31;6.90;99.90
23507;DHT22;11930;53.076;18.250;2024-03-02T05:45:57;6.90;99.90
23507;DHT22;11930;53.076;18.250;2024-03-02T05:48:23;6.90;99.90
23507;DHT22;11930;53.076;18.250;2024-03-02T05:53:16;6.90;99.90
23507;DHT22;11930;53.076;18.250;2024-03-02T05:55:42;7.00;99.90
23507;DHT22;11930;53.076;18.250;2024-03-02T05:58:11;6.90;99.90
23507;DHT22;11930;53.076;18.250;2024-03-02T06:00:53;7.00;99.90
23507;DHT22;11930;53.076;18.250;2024-03-02T06:05:49;7.00;99.90
23507;DHT22;11930;53.076;18.250;2024-03-02T06:10:42;7.00;99.90
23507;DHT22;11930;53.076;18.250;2024-03-02T06:13:08;7.00;99.90
23507;DHT22;11930;53.076;18.250;2024-03-02T06:15:35;7.00;99.90
23507;DHT22;11930;53.076;18.250;2024-03-02T06:18:02;7.00;99.90
23507;DHT22;11930;53.076;18.250;2024-03-02T06:20:28;7.00;99.90
23507;DHT22;11930;53.076;18.250;2024-03-02T06:22:57;7.00;99.90
23507;DHT22;11930;53.076;18.250;2024-03-02T06:25:24;7.10;99.90
23507;DHT22;11930;53.076;18.250;2024-03-02T06:27:50;7.00;99.90
23507;DHT22;11930;53.076;18.250;2024-03-02T06:30:17;7.10;99.90
23507;DHT22;11930;53.076;18.250;2024-03-02T06:32:43;7.10;99.90
23507;DHT22;11930;53.076;18.250;2024-03-02T06:35:09;7.10;99.90
23507;DHT22;11930;53.076;18.250;2024-03-02T06:37:40;7.10;99.90
23507;DHT22;11930;53.076;18.250;2024-03-02T06:40:07;7.10;99.90
23507;DHT22;11930;53.076;18.250;2024-03-02T06:45:02;7.10;99.90
23507;DHT22;11930;53.076;18.250;2024-03-02T06:47:28;7.10;99.90
23507;DHT22;11930;53.076;18.250;2024-03-02T06:49:54;7.20;99.90
23507;DHT22;11930;53.076;18.250;2024-03-02T06:52:21;7.20;99.90
23507;DHT22;11930;53.076;18.250;2024-03-02T06:54:47;7.20;99.90
23507;DHT22;11930;53.076;18.250;2024-03-02T06:57:13;7.20;99.90
23507;DHT22;11930;53.076;18.250;2024-03-02T06:59:40;7.20;99.90
23507;DHT22;11930;53.076;18.250;2024-03-02T07:02:06;7.30;99.90
23507;DHT22;11930;53.076;18.250;2024-03-02T07:04:32;7.30;99.90
23507;DHT22;11930;53.076;18.250;2024-03-02T07:06:58;7.30;99.90
23507;DHT22;11930;53.076;18.250;2024-03-02T07:09:24;7.30;99.90
23507;DHT22;11930;53.076;18.250;2024-03-02T07:11:51;7.30;99.90
23507;DHT22;11930;53.076;18.250;2024-03-02T07:14:18;7.40;99.90
23507;DHT22;11930;53.076;18.250;2024-03-02T07:16:44;7.40;99.90
23507;DHT22;11930;53.076;18.250;2024-03-02T07:21:37;7.40;99.90
23507;DHT22;11930;53.076;18.250;2024-03-02T07:24:03;7.40;99.90
23507;DHT22;11930;53.076;18.250;2024-03-02T07:26:30;7.40;99.90
23507;DHT22;11930;53.076;18.250;2024-03-02T07:28:57;7.40;99.90
23507;DHT22;11930;53.076;18.250;2024-03-02T07:31:23;7.40;99.90
23507;DHT22;11930;53.076;18.250;2024-03-02T07:33:50;7.50;99.90
23507;DHT22;11930;53.076;18.250;2024-03-02T07:36:16;7.60;99.90
23507;DHT22;11930;53.076;18.250;2024-03-02T07:38:43;7.60;99.90
23507;DHT22;11930;53.076;18.250;2024-03-02T07:41:10;7.80;99.90
23507;DHT22;11930;53.076;18.250;2024-03-02T07:43:37;7.90;99.90
23507;DHT22;11930;53.076;18.250;2024-03-02T07:46:03;8.00;99.90
23507;DHT22;11930;53.076;18.250;2024-03-02T07:48:29;8.30;99.90
23507;DHT22;11930;53.076;18.250;2024-03-02T07:50:56;8.60;99.90
23507;DHT22;11930;53.076;18.250;2024-03-02T07:53:23;8.80;99.90
23507;DHT22;11930;53.076;18.250;2024-03-02T07:55:49;9.10;99.90
23507;DHT22;11930;53.076;18.250;2024-03-02T07:58:15;9.20;99.90
23507;DHT22;11930;53.076;18.250;2024-03-02T08:00:41;9.30;99.90
23507;DHT22;11930;53.076;18.250;2024-03-02T08:03:08;9.30;99.90
23507;DHT22;11930;53.076;18.250;2024-03-02T08:05:37;9.30;99.90
23507;DHT22;11930;53.076;18.250;2024-03-02T08:08:05;9.20;99.90
23507;DHT22;11930;53.076;18.250;2024-03-02T08:10:31;9.20;99.90
23507;DHT22;11930;53.076;18.250;2024-03-02T08:12:57;9.10;99.90
23507;DHT22;11930;53.076;18.250;2024-03-02T08:15:23;9.10;99.90
23507;DHT22;11930;53.076;18.250;2024-03-02T08:17:49;9.20;99.90
23507;DHT22;11930;53.076;18.250;2024-03-02T08:20:16;9.40;99.90
23507;DHT22;11930;53.076;18.250;2024-03-02T08:22:42;9.60;99.90
23507;DHT22;11930;53.076;18.250;2024-03-02T08:25:09;9.70;99.90
23507;DHT22;11930;53.076;18.250;2024-03-02T08:27:35;9.80;99.90
23507;DHT22;11930;53.076;18.250;2024-03-02T08:30:03;9.80;99.90
23507;DHT22;11930;53.076;18.250;2024-03-02T08:32:32;9.90;99.90
23507;DHT22;11930;53.076;18.250;2024-03-02T08:34:58;10.10;99.90
23507;DHT22;11930;53.076;18.250;2024-03-02T08:37:24;10.20;99.90
23507;DHT22;11930;53.076;18.250;2024-03-02T08:39:50;10.20;99.90
23507;DHT22;11930;53.076;18.250;2024-03-02T08:42:16;10.20;99.90
23507;DHT22;11930;53.076;18.250;2024-03-02T08:44:43;10.30;99.90
23507;DHT22;11930;53.076;18.250;2024-03-02T08:47:09;10.40;99.90
23507;DHT22;11930;53.076;18.250;2024-03-02T08:49:36;10.50;99.90
23507;DHT22;11930;53.076;18.250;2024-03-02T08:52:02;10.60;99.90
23507;DHT22;11930;53.076;18.250;2024-03-02T08:54:28;10.50;99.90
23507;DHT22;11930;53.076;18.250;2024-03-02T08:56:54;10.40;99.90
23507;DHT22;11930;53.076;18.250;2024-03-02T08:59:21;10.30;99.90
23507;DHT22;11930;53.076;18.250;2024-03-02T09:01:47;10.30;99.90
23507;DHT22;11930;53.076;18.250;2024-03-02T09:04:14;10.30;99.90
23507;DHT22;11930;53.076;18.250;2024-03-02T09:06:40;10.40;99.90
23507;DHT22;11930;53.076;18.250;2024-03-02T09:09:07;10.40;99.90
23507;DHT22;11930;53.076;18.250;2024-03-02T09:11:33;10.60;99.90
23507;DHT22;11930;53.076;18.250;2024-03-02T09:14:00;10.60;99.90
23507;DHT22;11930;53.076;18.250;2024-03-02T09:16:26;10.60;99.90
23507;DHT22;11930;53.076;18.250;2024-03-02T09:18:57;10.50;99.90
23507;DHT22;11930;53.076;18.250;2024-03-02T09:21:23;10.40;99.90
23507;DHT22;11930;53.076;18.250;2024-03-02T09:23:49;10.30;99.90
23507;DHT22;11930;53.076;18.250;2024-03-02T09:26:15;10.20;99.90
23507;DHT22;11930;53.076;18.250;2024-03-02T09:28:44;10.20;99.90
23507;DHT22;11930;53.076;18.250;2024-03-02T09:31:10;10.30;99.90
23507;DHT22;11930;53.076;18.250;2024-03-02T09:33:38;10.40;99.90
23507;DHT22;11930;53.076;18.250;2024-03-02T09:36:05;10.60;99.90
23507;DHT22;11930;53.076;18.250;2024-03-02T09:38:34;10.70;99.90
23507;DHT22;11930;53.076;18.250;2024-03-02T09:41:01;11.00;99.90
23507;DHT22;11930;53.076;18.250;2024-03-02T09:43:27;11.40;99.90
23507;DHT22;11930;53.076;18.250;2024-03-02T09:45:54;11.50;99.90
23507;DHT22;11930;53.076;18.250;2024-03-02T09:48:20;11.60;99.90
23507;DHT22;11930;53.076;18.250;2024-03-02T09:50:46;11.60;99.90
23507;DHT22;11930;53.076;18.250;2024-03-02T09:53:14;11.60;99.90
23507;DHT22;11930;53.076;18.250;2024-03-02T09:55:41;11.70;99.90
23507;DHT22;11930;53.076;18.250;2024-03-02T09:58:09;11.80;99.90
23507;DHT22;11930;53.076;18.250;2024-03-02T10:00:35;11.80;99.90
23507;DHT22;11930;53.076;18.250;2024-03-02T10:03:02;11.90;99.90
23507;DHT22;11930;53.076;18.250;2024-03-02T10:05:30;11.90;99.90
23507;DHT22;11930;53.076;18.250;2024-03-02T10:08:02;11.90;99.90
23507;DHT22;11930;53.076;18.250;2024-03-02T10:10:35;12.00;99.90
23507;DHT22;11930;53.076;18.250;2024-03-02T10:13:10;12.10;99.90
23507;DHT22;11930;53.076;18.250;2024-03-02T10:15:38;12.20;99.90
23507;DHT22;11930;53.076;18.250;2024-03-02T10:18:10;12.40;99.90
23507;DHT22;11930;53.076;18.250;2024-03-02T10:20:38;12.40;99.90
23507;DHT22;11930;53.076;18.250;2024-03-02T10:23:13;12.50;99.90
23507;DHT22;11930;53.076;18.250;2024-03-02T10:25:40;12.50;99.90
23507;DHT22;11930;53.076;18.250;2024-03-02T10:28:07;12.50;99.90
23507;DHT22;11930;53.076;18.250;2024-03-02T10:30:34;12.50;99.90
23507;DHT22;11930;53.076;18.250;2024-03-02T10:33:04;12.40;99.90
23507;DHT22;11930;53.076;18.250;2024-03-02T10:35:32;12.20;99.90
23507;DHT22;11930;53.076;18.250;2024-03-02T10:37:59;12.00;99.90
23507;DHT22;11930;53.076;18.250;2024-03-02T10:40:27;11.90;99.90
23507;DHT22;11930;53.076;18.250;2024-03-02T10:42:53;11.80;99.90
23507;DHT22;11930;53.076;18.250;2024-03-02T10:45:20;11.80;99.90
23507;DHT22;11930;53.076;18.250;2024-03-02T10:47:50;11.70;99.90
23507;DHT22;11930;53.076;18.250;2024-03-02T10:50:16;11.70;99.90
23507;DHT22;11930;53.076;18.250;2024-03-02T10:52:43;11.70;99.90
23507;DHT22;11930;53.076;18.250;2024-03-02T10:55:09;11.60;99.90
23507;DHT22;11930;53.076;18.250;2024-03-02T10:57:45;11.60;99.90
23507;DHT22;11930;53.076;18.250;2024-03-02T11:00:13;11.60;99.90
23507;DHT22;11930;53.076;18.250;2024-03-02T11:02:51;11.70;99.90
23507;DHT22;11930;53.076;18.250;2024-03-02T11:05:26;11.70;99.90
23507;DHT22;11930;53.076;18.250;2024-03-02T11:08:07;11.70;99.90
23507;DHT22;11930;53.076;18.250;2024-03-02T11:10:51;11.60;99.90
23507;DHT22;11930;53.076;18.250;2024-03-02T11:13:24;11.60;99.90
23507;DHT22;11930;53.076;18.250;2024-03-02T11:15:55;11.60;99.90
23507;DHT22;11930;53.076;18.250;2024-03-02T11:18:26;11.60;99.90
23507;DHT22;11930;53.076;18.250;2024-03-02T11:20:52;11.60;99.90
23507;DHT22;11930;53.076;18.250;2024-03-02T11:23:32;11.70;99.90
23507;DHT22;11930;53.076;18.250;2024-03-02T11:26:31;11.70;99.90
23507;DHT22;11930;53.076;18.250;2024-03-02T11:29:06;11.70;99.90
23507;DHT22;11930;53.076;18.250;2024-03-02T11:31:57;11.70;99.90
23507;DHT22;11930;53.076;18.250;2024-03-02T11:36:55;11.70;99.90
23507;DHT22;11930;53.076;18.250;2024-03-02T11:39:21;11.80;99.90
23507;DHT22;11930;53.076;18.250;2024-03-02T11:41:47;11.80;99.90
23507;DHT22;11930;53.076;18.250;2024-03-02T11:44:15;11.90;99.90
23507;DHT22;11930;53.076;18.250;2024-03-02T11:46:42;12.00;99.90
23507;DHT22;11930;53.076;18.250;2024-03-02T11:49:15;12.00;99.90
23507;DHT22;11930;53.076;18.250;2024-03-02T11:52:00;12.00;99.90
23507;DHT22;11930;53.076;18.250;2024-03-02T11:54:30;11.90;99.90
23507;DHT22;11930;53.076;18.250;2024-03-02T11:57:01;11.90;99.90
23507;DHT22;11930;53.076;18.250;2024-03-02T11:59:29;11.90;99.90
23507;DHT22;11930;53.076;18.250;2024-03-02T12:01:56;11.90;99.90
23507;DHT22;11930;53.076;18.250;2024-03-02T12:04:23;12.00;99.90
23507;DHT22;11930;53.076;18.250;2024-03-02T12:07:00;11.90;99.90
23507;DHT22;11930;53.076;18.250;2024-03-02T12:09:28;12.00;99.90
23507;DHT22;11930;53.076;18.250;2024-03-02T12:12:08;12.00;99.90
23507;DHT22;11930;53.076;18.250;2024-03-02T12:14:38;12.00;99.90
23507;DHT22;11930;53.076;18.250;2024-03-02T12:17:05;12.00;99.90
23507;DHT22;11930;53.076;18.250;2024-03-02T12:19:32;12.10;99.90
23507;DHT22;11930;53.076;18.250;2024-03-02T12:21:59;12.10;99.90
23507;DHT22;11930;53.076;18.250;2024-03-02T12:24:29;12.00;99.90
23507;DHT22;11930;53.076;18.250;2024-03-02T12:26:57;12.00;99.90
23507;DHT22;11930;53.076;18.250;2024-03-02T12:29:24;12.00;99.90
23507;DHT22;11930;53.076;18.250;2024-03-02T12:31:51;12.00;99.90
23507;DHT22;11930;53.076;18.250;2024-03-02T12:34:19;12.00;99.90
23507;DHT22;11930;53.076;18.250;2024-03-02T12:36:48;12.00;99.90
23507;DHT22;11930;53.076;18.250;2024-03-02T12:39:16;11.90;99.90
23507;DHT22;11930;53.076;18.250;2024-03-02T12:41:42;11.90;99.90
23507;DHT22;11930;53.076;18.250;2024-03-02T12:44:09;11.90;99.90
23507;DHT22;11930;53.076;18.250;2024-03-02T12:46:36;11.90;99.90
23507;DHT22;11930;53.076;18.250;2024-03-02T12:49:08;11.90;99.90
23507;DHT22;11930;53.076;18.250;2024-03-02T12:51:40;11.90;99.90
23507;DHT22;11930;53.076;18.250;2024-03-02T12:54:08;11.90;99.90
23507;DHT22;11930;53.076;18.250;2024-03-02T12:56:35;11.90;99.90
23507;DHT22;11930;53.076;18.250;2024-03-02T12:59:02;11.90;99.90
23507;DHT22;11930;53.076;18.250;2024-03-02T13:01:28;11.90;99.90
23507;DHT22;11930;53.076;18.250;2024-03-02T13:03:55;11.90;99.90
23507;DHT22;11930;53.076;18.250;2024-03-02T13:06:23;11.90;99.90
23507;DHT22;11930;53.076;18.250;2024-03-02T13:08:50;12.10;99.90
23507;DHT22;11930;53.076;18.250;2024-03-02T13:11:16;12.10;99.90
23507;DHT22;11930;53.076;18.250;2024-03-02T13:13:43;12.20;99.90
23507;DHT22;11930;53.076;18.250;2024-03-02T13:16:12;12.20;99.90
23507;DHT22;11930;53.076;18.250;2024-03-02T13:18:39;12.20;99.90
23507;DHT22;11930;53.076;18.250;2024-03-02T13:21:06;12.20;99.90
23507;DHT22;11930;53.076;18.250;2024-03-02T13:23:32;12.20;99.90
23507;DHT22;11930;53.076;18.250;2024-03-02T13:25:59;12.30;99.90
23507;DHT22;11930;53.076;18.250;2024-03-02T13:28:25;12.30;99.90
23507;DHT22;11930;53.076;18.250;2024-03-02T13:30:52;12.20;99.90
23507;DHT22;11930;53.076;18.250;2024-03-02T13:33:18;12.20;99.90
23507;DHT22;11930;53.076;18.250;2024-03-02T13:35:49;12.20;99.90
23507;DHT22;11930;53.076;18.250;2024-03-02T13:38:19;12.10;99.90
23507;DHT22;11930;53.076;18.250;2024-03-02T13:40:48;12.10;99.90
23507;DHT22;11930;53.076;18.250;2024-03-02T13:43:17;12.20;99.90
23507;DHT22;11930;53.076;18.250;2024-03-02T13:45:45;12.10;99.90
23507;DHT22;11930;53.076;18.250;2024-03-02T13:48:13;12.00;99.90
23507;DHT22;11930;53.076;18.250;2024-03-02T13:50:40;12.10;99.90
23507;DHT22;11930;53.076;18.250;2024-03-02T13:53:07;12.00;99.90
23507;DHT22;11930;53.076;18.250;2024-03-02T13:55:33;12.00;99.90
23507;DHT22;11930;53.076;18.250;2024-03-02T13:57:59;12.00;99.90
23507;DHT22;11930;53.076;18.250;2024-03-02T14:00:25;12.00;99.90
23507;DHT22;11930;53.076;18.250;2024-03-02T14:02:52;11.90;99.90
23507;DHT22;11930;53.076;18.250;2024-03-02T14:05:18;11.90;99.90
23507;DHT22;11930;53.076;18.250;2024-03-02T14:07:45;11.90;99.90
23507;DHT22;11930;53.076;18.250;2024-03-02T14:12:38;11.80;99.90
23507;DHT22;11930;53.076;18.250;2024-03-02T14:15:08;11.80;99.90
23507;DHT22;11930;53.076;18.250;2024-03-02T14:17:34;11.70;99.90
23507;DHT22;11930;53.076;18.250;2024-03-02T14:22:28;11.70;99.90
23507;DHT22;11930;53.076;18.250;2024-03-02T14:24:54;11.70;99.90
23507;DHT22;11930;53.076;18.250;2024-03-02T14:27:20;11.70;99.90
23507;DHT22;11930;53.076;18.250;2024-03-02T14:29:47;11.70;99.90
23507;DHT22;11930;53.076;18.250;2024-03-02T14:32:13;11.70;99.90
23507;DHT22;11930;53.076;18.250;2024-03-02T14:37:06;11.60;99.90
23507;DHT22;11930;53.076;18.250;2024-03-02T14:39:33;11.60;99.90
23507;DHT22;11930;53.076;18.250;2024-03-02T14:42:01;11.60;99.90
23507;DHT22;11930;53.076;18.250;2024-03-02T14:44:27;11.40;99.90
23507;DHT22;11930;53.076;18.250;2024-03-02T14:46:53;11.50;99.90
23507;DHT22;11930;53.076;18.250;2024-03-02T14:49:19;11.50;99.90
23507;DHT22;11930;53.076;18.250;2024-03-02T14:51:46;11.40;99.90
23507;DHT22;11930;53.076;18.250;2024-03-02T14:54:12;11.40;99.90
23507;DHT22;11930;53.076;18.250;2024-03-02T14:56:38;11.40;99.90
23507;DHT22;11930;53.076;18.250;2024-03-02T14:59:05;11.30;99.90
23507;DHT22;11930;53.076;18.250;2024-03-02T15:01:31;11.30;99.90
23507;DHT22;11930;53.076;18.250;2024-03-02T15:03:57;11.30;99.90
23507;DHT22;11930;53.076;18.250;2024-03-02T15:06:23;11.20;99.90
23507;DHT22;11930;53.076;18.250;2024-03-02T15:08:50;11.20;99.90
23507;DHT22;11930;53.076;18.250;2024-03-02T15:11:16;11.10;99.90
23507;DHT22;11930;53.076;18.250;2024-03-02T15:13:42;11.10;99.90
23507;DHT22;11930;53.076;18.250;2024-03-02T15:16:09;11.10;99.90
23507;DHT22;11930;53.076;18.250;2024-03-02T15:18:36;11.00;99.90
23507;DHT22;11930;53.076;18.250;2024-03-02T15:21:05;11.00;99.90
23507;DHT22;11930;53.076;18.250;2024-03-02T15:23:31;11.00;99.90
23507;DHT22;11930;53.076;18.250;2024-03-02T15:25:58;10.90;99.90
23507;DHT22;11930;53.076;18.250;2024-03-02T15:28:24;10.80;99.90
23507;DHT22;11930;53.076;18.250;2024-03-02T15:30:51;10.80;99.90
23507;DHT22;11930;53.076;18.250;2024-03-02T15:33:17;10.70;99.90
23507;DHT22;11930;53.076;18.250;2024-03-02T15:35:44;10.70;99.90
23507;DHT22;11930;53.076;18.250;2024-03-02T15:38:10;10.70;99.90
23507;DHT22;11930;53.076;18.250;2024-03-02T15:40:41;10.60;99.90
23507;DHT22;11930;53.076;18.250;2024-03-02T15:43:07;10.60;99.90
23507;DHT22;11930;53.076;18.250;2024-03-02T15:45:33;10.50;99.90
23507;DHT22;11930;53.076;18.250;2024-03-02T15:48:00;10.50;99.90
23507;DHT22;11930;53.076;18.250;2024-03-02T15:52:58;10.40;99.90
23507;DHT22;11930;53.076;18.250;2024-03-02T15:55:29;10.40;99.90
23507;DHT22;11930;53.076;18.250;2024-03-02T15:57:55;10.30;99.90
23507;DHT22;11930;53.076;18.250;2024-03-02T16:00:22;10.30;99.90